createdAt,value
2018-08-09T00:00:34.070Z,100734.38
2018-08-09T00:05:37.565Z,100740.14
2018-08-09T00:10:41.217Z,100737.33
2018-08-09T00:15:44.705Z,100749.37
2018-08-09T00:20:48.249Z,100744.08
2018-08-09T00:25:52.311Z,100738.73
2018-08-09T00:30:55.894Z,100736.67
2018-08-09T00:35:59.550Z,100735.03
2018-08-09T00:41:03.274Z,100725.17
2018-08-09T00:46:07.415Z,100712.11
2018-08-09T00:51:11.048Z,100710.55
2018-08-09T00:56:14.651Z,100712.59
2018-08-09T01:01:18.201Z,100710.13
2018-08-09T01:06:23.342Z,100707.66
2018-08-09T01:11:27.161Z,100701.36
2018-08-09T01:16:30.670Z,100702.66
2018-08-09T01:21:34.441Z,100708.52
2018-08-09T01:26:38.244Z,100712.88
2018-08-09T01:31:41.990Z,100718.63
2018-08-09T01:36:46.026Z,100708.05
2018-08-09T01:42:01.174Z,100714.20
2018-08-09T01:47:06.234Z,100709.33
2018-08-09T01:52:09.819Z,100706.76
2018-08-09T01:57:13.398Z,100706.80
2018-08-09T02:02:16.990Z,100707.02
2018-08-09T02:07:20.858Z,100709.57
2018-08-09T02:12:24.459Z,100698.45
2018-08-09T02:17:27.985Z,100703.83
2018-08-09T02:22:31.571Z,100705.93
2018-08-09T02:27:35.132Z,100704.83
2018-08-09T02:32:38.682Z,100705.77
2018-08-09T02:37:42.455Z,100692.94
2018-08-09T02:42:46.189Z,100693.33
2018-08-09T02:47:50.299Z,100695.32
2018-08-09T02:52:53.959Z,100697.34
2018-08-09T02:57:57.533Z,100698.16
2018-08-09T03:03:01.104Z,100691.45
2018-08-09T03:08:04.650Z,100698.09
2018-08-09T03:13:08.267Z,100693.92
2018-08-09T03:18:11.907Z,100688.02
2018-08-09T03:23:15.550Z,100676.00
2018-08-09T03:28:19.108Z,100681.60
2018-08-09T03:33:22.629Z,100676.88
2018-08-09T03:38:26.429Z,100674.22
2018-08-09T03:43:30.276Z,100667.81
2018-08-09T03:48:33.767Z,100672.16
2018-08-09T03:53:41.097Z,100668.80
2018-08-09T03:58:44.640Z,100672.77
2018-08-09T04:03:48.762Z,100657.20
2018-08-09T04:08:52.257Z,100646.64
2018-08-09T04:13:56.230Z,100641.77
2018-08-09T04:19:00.372Z,100646.73
2018-08-09T04:24:03.956Z,100658.09
2018-08-09T04:29:07.465Z,100669.22
2018-08-09T04:34:11.081Z,100673.75
2018-08-09T04:39:14.586Z,100678.78
2018-08-09T04:44:18.762Z,100676.39
2018-08-09T04:49:22.252Z,100674.31
2018-08-09T04:54:25.838Z,100685.02
2018-08-09T04:59:40.672Z,100681.75
2018-08-09T05:04:44.394Z,100680.44
2018-08-09T05:09:48.139Z,100673.66
2018-08-09T05:14:51.757Z,100663.89
2018-08-09T05:19:55.313Z,100656.95
2018-08-09T05:25:00.030Z,100662.41
2018-08-09T05:30:03.630Z,100665.75
2018-08-09T05:35:07.259Z,100668.27
2018-08-09T05:40:11.403Z,100654.37
2018-08-09T05:45:15.196Z,100654.87
2018-08-09T05:50:18.790Z,100647.67
2018-08-09T05:55:22.372Z,100655.27
2018-08-09T06:00:28.490Z,100651.08
2018-08-09T06:05:32.102Z,100644.52
2018-08-09T06:10:35.790Z,100635.05
2018-08-09T06:15:39.359Z,100631.66
2018-08-09T06:20:42.883Z,100624.05
2018-08-09T06:25:46.477Z,100618.31
2018-08-09T06:30:50.197Z,100625.62
2018-08-09T06:35:53.816Z,100613.03
2018-08-09T06:40:58.294Z,100619.75
2018-08-09T06:46:01.900Z,100614.42
2018-08-09T06:51:05.465Z,100624.84
2018-08-09T06:56:09.197Z,100632.03
2018-08-09T07:01:12.864Z,100620.51
2018-08-09T07:06:22.837Z,100604.94
2018-08-09T07:11:26.339Z,100605.39
2018-08-09T07:16:30.274Z,100598.06
2018-08-09T07:21:34.209Z,100615.05
2018-08-09T07:26:37.918Z,100615.05
2018-08-09T07:31:41.598Z,100571.31
2018-08-09T07:36:45.973Z,100555.06
2018-08-09T07:41:49.509Z,100582.52
2018-08-09T07:46:53.102Z,100580.25
2018-08-09T07:51:56.719Z,100597.81
2018-08-09T07:57:00.404Z,100587.08
2018-08-09T08:02:03.869Z,100575.83
2018-08-09T08:07:07.636Z,100567.23
2018-08-09T08:12:11.176Z,100578.00
2018-08-09T08:17:14.749Z,100576.70
2018-08-09T08:22:18.277Z,100567.72
2018-08-09T08:27:22.007Z,100549.53
2018-08-09T08:32:25.557Z,100553.91
2018-08-09T08:37:29.073Z,100539.89
2018-08-09T08:42:32.624Z,100536.69
2018-08-09T08:47:36.182Z,100527.39
2018-08-09T08:52:40.575Z,100523.20
2018-08-09T08:57:44.196Z,100515.52
2018-08-09T09:02:47.694Z,100506.42
2018-08-09T09:07:51.366Z,100503.22
2018-08-09T09:12:54.883Z,100491.16
2018-08-09T09:17:58.465Z,100486.69
2018-08-09T09:23:02.173Z,100491.45
2018-08-09T09:28:05.809Z,100495.88
2018-08-09T09:33:09.312Z,100477.87
2018-08-09T09:38:13.059Z,100453.68
2018-08-09T09:43:16.640Z,100420.22
2018-08-09T09:48:20.343Z,100419.08
2018-08-09T09:53:23.958Z,100423.54
2018-08-09T09:58:27.562Z,100423.54
2018-08-09T10:03:31.430Z,100424.17
2018-08-09T10:08:35.318Z,100420.55
2018-08-09T10:13:39.371Z,100411.50
2018-08-09T10:18:43.053Z,100392.56
2018-08-09T10:23:47.503Z,100391.68
2018-08-09T10:28:51.158Z,100382.83
2018-08-09T10:33:54.851Z,100375.52
2018-08-09T10:38:58.431Z,100364.05
2018-08-09T10:44:02.923Z,100334.23
2018-08-09T10:49:06.504Z,100290.23
2018-08-09T10:54:10.098Z,100268.42
2018-08-09T10:59:14.621Z,100265.25
2018-08-09T11:04:18.302Z,100253.52
2018-08-09T11:09:21.908Z,100242.59
2018-08-09T11:14:25.574Z,100222.98
2018-08-09T11:19:29.142Z,100232.78
2018-08-09T11:24:32.713Z,100219.13
2018-08-09T11:29:36.320Z,100212.58
2018-08-09T11:34:40.028Z,100214.11
2018-08-09T11:39:43.911Z,100194.53
2018-08-09T11:44:48.158Z,100191.52
2018-08-09T11:49:54.457Z,100183.63
2018-08-09T11:54:57.993Z,100175.34
2018-08-09T12:00:01.584Z,100159.14
2018-08-09T12:05:05.280Z,100132.05
2018-08-09T12:10:08.998Z,100111.30
2018-08-09T12:15:13.573Z,100086.95
2018-08-09T12:20:20.138Z,100071.88
2018-08-09T12:25:23.774Z,100047.66
2018-08-09T12:30:30.442Z,100042.19
2018-08-09T12:35:34.145Z,100015.25
2018-08-09T12:40:37.716Z,100004.86
2018-08-09T12:45:41.689Z,99977.78
2018-08-09T12:50:45.361Z,99965.20
2018-08-09T12:55:48.930Z,99961.68
2018-08-09T13:00:52.541Z,99947.95
2018-08-09T13:05:56.327Z,99930.24
2018-08-09T13:11:00.734Z,99919.87
2018-08-09T13:16:04.329Z,99922.17
2018-08-09T13:21:08.805Z,99903.26
2018-08-09T13:26:13.634Z,99889.86
2018-08-09T13:31:17.425Z,99874.33
2018-08-09T13:36:21.104Z,99855.31
2018-08-09T13:41:24.804Z,99847.63
2018-08-09T13:46:28.505Z,99834.03
2018-08-09T13:51:32.162Z,99821.40
2018-08-09T13:56:36.030Z,99809.59
2018-08-09T14:01:39.660Z,99795.10
2018-08-09T14:06:43.270Z,99782.31
2018-08-09T14:11:46.927Z,99777.23
2018-08-09T14:16:50.938Z,99765.09
2018-08-09T14:21:54.698Z,99768.99
2018-08-09T14:27:10.743Z,99806.55
2018-08-09T14:32:14.604Z,99931.31
2018-08-09T14:37:18.127Z,99857.99
2018-08-09T14:42:21.769Z,99954.09
2018-08-09T14:47:25.382Z,99991.38
2018-08-09T14:52:29.015Z,100013.69
2018-08-09T14:57:33.207Z,100005.18
2018-08-09T15:02:36.868Z,100023.13
2018-08-09T15:07:41.031Z,100031.91
2018-08-09T15:12:44.674Z,100011.87
2018-08-09T15:17:49.456Z,100002.61
2018-08-09T15:22:53.110Z,100008.26
2018-08-09T15:27:56.670Z,99999.02
2018-08-09T15:33:00.256Z,99994.33
2018-08-09T15:38:03.961Z,99955.56
2018-08-09T15:43:08.069Z,99958.73
2018-08-09T15:48:12.451Z,99959.48
2018-08-09T15:53:15.992Z,99943.00
2018-08-09T15:58:19.512Z,99903.88
2018-08-09T16:03:23.192Z,99915.06
2018-08-09T16:08:26.919Z,99910.89
2018-08-09T16:13:30.724Z,99914.64
2018-08-09T16:18:34.939Z,99944.62
2018-08-09T16:23:38.596Z,99947.11
2018-08-09T16:28:42.996Z,99949.05
2018-08-09T16:33:46.841Z,99948.28
2018-08-09T16:38:50.764Z,99954.96
2018-08-09T16:43:54.453Z,99949.38
2018-08-09T16:48:58.044Z,99944.50
2018-08-09T16:54:01.612Z,99939.77
2018-08-09T16:59:05.239Z,99946.27
2018-08-09T17:04:09.028Z,99951.96
2018-08-09T17:09:14.651Z,99937.08
2018-08-09T17:14:19.312Z,99941.43
2018-08-09T17:19:22.986Z,99937.30
2018-08-09T17:24:26.567Z,99941.88
2018-08-09T17:29:30.217Z,99952.30
2018-08-09T17:34:34.126Z,99955.48
2018-08-09T17:39:37.940Z,99967.76
2018-08-09T17:44:41.778Z,99965.75
2018-08-09T17:49:45.969Z,99971.25
2018-08-09T17:54:49.502Z,99969.48
2018-08-09T17:59:53.249Z,99970.81
2018-08-09T18:04:57.314Z,99979.28
2018-08-09T18:10:00.919Z,99977.85
2018-08-09T18:15:05.181Z,99974.25
2018-08-09T18:20:11.104Z,99982.26
2018-08-09T18:25:15.547Z,99973.46
2018-08-09T18:30:19.973Z,99987.45
2018-08-09T18:35:23.531Z,99996.02
2018-08-09T18:40:34.967Z,100009.10
2018-08-09T18:45:39.976Z,100003.07
2018-08-09T18:50:43.580Z,100009.43
2018-08-09T18:55:47.118Z,100013.69
2018-08-09T19:00:50.712Z,100008.75
2018-08-09T19:05:54.435Z,100019.14
2018-08-09T19:10:58.054Z,100032.27
2018-08-09T19:16:01.696Z,100040.65
2018-08-09T19:21:05.360Z,100045.96
2018-08-09T19:26:09.011Z,100054.06
2018-08-09T19:31:13.529Z,100053.27
2018-08-09T19:36:17.166Z,100065.59
2018-08-09T19:41:20.697Z,100088.07
2018-08-09T19:46:24.602Z,100100.25
2018-08-09T19:51:28.596Z,100114.23
2018-08-09T19:56:32.252Z,100142.14
2018-08-09T20:01:35.959Z,100158.87
2018-08-09T20:06:39.576Z,100163.08
2018-08-09T20:11:43.180Z,100170.69
2018-08-09T20:16:46.819Z,100177.66
2018-08-09T20:21:50.491Z,100183.17
2018-08-09T20:26:55.102Z,100193.84
2018-08-09T20:31:59.118Z,100195.38
2018-08-09T20:37:03.288Z,100193.22
2018-08-09T20:42:07.115Z,100202.80
2018-08-09T20:47:10.730Z,100206.68
2018-08-09T20:52:14.364Z,100211.48
2018-08-09T20:57:18.520Z,100224.53
2018-08-09T21:02:22.200Z,100215.73
2018-08-09T21:07:25.885Z,100216.75
2018-08-09T21:12:29.538Z,100216.59
2018-08-09T21:17:45.117Z,100218.19
2018-08-09T21:22:49.588Z,100245.33
2018-08-09T21:27:53.808Z,100252.79
2018-08-09T21:32:57.481Z,100225.27
2018-08-09T21:38:01.284Z,100259.98
2018-08-09T21:43:05.466Z,100271.05
2018-08-09T21:48:10.190Z,100278.42
2018-08-09T21:53:14.114Z,100291.39
2018-08-09T21:58:18.096Z,100298.96
2018-08-09T22:03:26.154Z,100313.70
2018-08-09T22:08:35.150Z,100314.05
2018-08-09T22:13:44.280Z,100327.65
2018-08-09T22:18:53.228Z,100362.42
2018-08-09T22:23:56.806Z,100367.94
2018-08-09T22:29:00.921Z,100386.94
2018-08-09T22:34:04.497Z,100401.20
2018-08-09T22:39:09.470Z,100393.47
2018-08-09T22:44:13.080Z,100414.06
2018-08-09T22:49:16.743Z,100435.86
2018-08-09T22:54:24.638Z,100437.92
2018-08-09T22:59:28.253Z,100454.27
2018-08-09T23:04:33.132Z,100474.13
2018-08-09T23:09:36.793Z,100484.63
2018-08-09T23:14:40.729Z,100494.25
2018-08-09T23:19:44.341Z,100503.25
2018-08-09T23:24:49.065Z,100514.52
2018-08-09T23:29:52.717Z,100524.57
2018-08-09T23:34:56.356Z,100524.17
2018-08-09T23:39:59.971Z,100556.30
2018-08-09T23:45:03.774Z,100567.14
2018-08-09T23:50:09.413Z,100577.05
2018-08-09T23:55:15.599Z,100587.02
